Weather at Hazrat Shahjalal International Airport

Public forecast

Using degrees Celsius for public forecast. Weather courtesy of forecast.io.

Closest aviation weather report (METAR) to Hazrat Shahjalal International Airport

Closest report is Agartala - Maharaja Bir Bikram Airport, 46.3 nm (85.8 km) E.

2024/06/16 06:30 (retrieved 25 minutes ago)

VEAT 160630Z 20008KT 5000 HZ SCT018 BKN100 33/28 Q1003 NOSIG

Closest aviation forecast (TAF) to Hazrat Shahjalal International Airport

Closest forecast is Agartala - Maharaja Bir Bikram Airport, 46.3 nm (85.8 km) E.

2024/06/16 06:00 (retrieved 55 minutes ago)

TAF VEAT 160500Z 1606/1712 23008KT 5000 HZ FEW010 SCT018 BKN100 TEMPO 1608/1610 21008KT 2800 -TSRA SCT010 SCT018 FEW030CB BKN100 BECMG 1616/1619 16005KT 2800 BR SCT018 BKN100 TEMPO 1702/1705 18008KT 2200 -TSRA SCT010 SCT018 FEW030CB BKN100 BECMG 1707/171 16004KT 3500 HZ SCT018 BKN100